Time;durP1;ratioP1;P1;durP2;ratioP2;P2;SDS_P1;SDS_P2;PMS_P1;PMS_P2;Temp;Humidity;BMP_temperature;BMP_pressure;BME280_temperature;BME280_humidity;BME280_pressure;Samples;Min_cycle;Max_cycle;Signal;HPM_P1;HPM_P2
2022/04/11 00:00:57;;;;;;;14.15;6.55;;;;;;;9.05;52.06;102032.97;4955196;28;20509;-59
2022/04/11 00:03:23;;;;;;;14.27;6.57;;;;;;;9.06;51.81;102024.34;4951882;28;20038;-57
2022/04/11 00:05:49;;;;;;;13.38;6.60;;;;;;;9.05;52.19;102015.66;4955084;28;20052;-59
2022/04/11 00:08:14;;;;;;;12.70;5.53;;;;;;;9.14;51.37;102017.72;4947767;28;20042;-59
2022/04/11 00:10:39;;;;;;;13.70;5.80;;;;;;;9.09;51.31;102020.13;4956366;28;20058;-61
2022/04/11 00:13:07;;;;;;;13.90;5.75;;;;;;;9.06;51.99;102013.94;4952882;28;20055;-59
2022/04/11 00:15:38;;;;;;;14.90;6.05;;;;;;;9.03;51.44;102008.59;4947605;28;20042;-59
2022/04/11 00:18:07;;;;;;;11.90;5.72;;;;;;;9.02;52.01;102012.94;4952923;28;20330;-60
2022/04/11 00:20:33;;;;;;;10.32;5.68;;;;;;;9.06;51.16;102009.63;4952375;28;20061;-58
2022/04/11 00:22:58;;;;;;;10.23;5.28;;;;;;;9.08;51.01;102015.78;4954317;28;20046;-59
2022/04/11 00:25:24;;;;;;;13.38;5.78;;;;;;;9.04;51.08;102019.06;4954397;28;20054;-59
2022/04/11 00:27:49;;;;;;;11.20;5.55;;;;;;;9.12;50.78;102012.44;4952729;28;20337;-58
2022/04/11 00:30:14;;;;;;;11.07;5.18;;;;;;;9.02;51.37;102012.94;4947442;28;20343;-60
2022/04/11 00:32:44;;;;;;;11.45;5.63;;;;;;;9.01;51.26;102016.38;4950933;28;20043;-60
2022/04/11 00:35:12;;;;;;;9.98;5.43;;;;;;;9.02;51.27;102009.47;4949720;28;20632;-59
2022/04/11 00:37:38;;;;;;;13.90;5.47;;;;;;;9.02;51.56;102009.47;4959247;28;20141;-59
2022/04/11 00:40:13;;;;;;;13.75;5.40;;;;;;;9.01;51.06;102010.28;4952411;28;20049;-59
2022/04/11 00:42:39;;;;;;;10.27;5.57;;;;;;;8.98;50.98;102015.34;4957593;28;20129;-59
2022/04/11 00:45:05;;;;;;;11.50;5.20;;;;;;;8.96;51.31;102010.13;4956837;28;20233;-60
2022/04/11 00:47:30;;;;;;;9.02;5.10;;;;;;;8.87;52.44;102009.75;4960573;28;20047;-60
2022/04/11 00:50:07;;;;;;;11.35;5.18;;;;;;;8.82;51.99;102008.69;4947591;28;20105;-59
2022/04/11 00:52:35;;;;;;;8.48;4.75;;;;;;;8.84;51.81;101994.91;4952283;28;20421;-59
2022/04/11 00:55:02;;;;;;;8.93;4.47;;;;;;;8.82;51.66;102001.78;4954117;28;20042;-59
2022/04/11 00:57:28;;;;;;;10.63;5.20;;;;;;;8.77;52.08;102002.44;4956229;28;20180;-58
2022/04/11 00:59:54;;;;;;;11.18;5.10;;;;;;;8.71;52.19;101999.59;4953678;28;20041;-57
2022/04/11 01:02:23;;;;;;;11.13;5.03;;;;;;;8.65;52.76;101999.34;4947608;28;21368;-59
2022/04/11 01:04:48;;;;;;;10.85;4.80;;;;;;;8.51;53.65;102004.00;4953361;28;20128;-58
2022/04/11 01:07:14;;;;;;;9.25;5.28;;;;;;;8.45;54.00;101994.25;4954934;28;20604;-59
2022/04/11 01:09:40;;;;;;;10.75;5.30;;;;;;;8.43;53.99;101992.41;4944741;28;20564;-58
2022/04/11 01:12:06;;;;;;;11.27;5.45;;;;;;;8.43;53.66;101989.81;4942794;28;20042;-57
2022/04/11 01:14:31;;;;;;;11.88;5.30;;;;;;;8.39;53.52;101985.34;4936451;28;20112;-59
2022/04/11 01:16:58;;;;;;;11.88;5.75;;;;;;;8.33;54.21;101985.09;4959010;28;20481;-59
2022/04/11 01:19:26;;;;;;;11.60;5.43;;;;;;;8.34;53.85;101982.56;4956466;28;20046;-59
2022/04/11 01:21:51;;;;;;;15.45;5.50;;;;;;;8.37;53.83;101981.78;4949080;28;20043;-60
2022/04/11 01:24:23;;;;;;;11.82;5.38;;;;;;;8.35;54.01;101986.03;4945629;28;20234;-59
2022/04/11 01:26:50;;;;;;;10.88;5.38;;;;;;;8.33;53.93;101982.50;4950364;28;20378;-59
2022/04/11 01:29:18;;;;;;;11.40;5.47;;;;;;;8.29;53.74;101980.56;4951967;28;20081;-59
2022/04/11 01:31:44;;;;;;;10.38;5.32;;;;;;;8.30;53.54;101975.44;4945909;28;20093;-59
2022/04/11 01:34:10;;;;;;;10.00;5.53;;;;;;;8.28;54.03;101979.69;4949199;28;20599;-58
2022/04/11 01:36:36;;;;;;;11.38;5.40;;;;;;;8.28;53.95;101979.69;4956086;28;20083;-59
2022/04/11 01:39:01;;;;;;;13.75;5.88;;;;;;;8.20;54.90;101980.19;4951680;28;20473;-57
2022/04/11 01:41:27;;;;;;;12.50;5.75;;;;;;;8.18;54.41;101971.44;4942043;28;20046;-59
2022/04/11 01:43:52;;;;;;;12.60;5.55;;;;;;;8.18;54.68;101979.22;4955288;28;20398;-59
2022/04/11 01:46:18;;;;;;;14.23;5.85;;;;;;;8.12;54.91;101966.88;4947729;28;20301;-59
2022/04/11 01:48:43;;;;;;;12.55;5.93;;;;;;;8.08;54.87;101972.78;4950016;28;20054;-59
2022/04/11 01:51:09;;;;;;;11.13;5.85;;;;;;;8.06;55.08;101977.00;4956472;28;20054;-58
2022/04/11 01:53:34;;;;;;;15.05;5.85;;;;;;;8.00;54.93;101966.38;4945218;28;20558;-59
2022/04/11 01:55:59;;;;;;;17.85;5.85;;;;;;;7.97;55.17;101969.75;4955868;28;20568;-62
2022/04/11 01:58:25;;;;;;;11.63;6.10;;;;;;;7.93;55.30;101969.56;4948974;28;20045;-59
2022/04/11 02:00:50;;;;;;;13.02;5.82;;;;;;;7.89;55.33;101971.13;4949264;28;20541;-59
2022/04/11 02:03:16;;;;;;;13.13;5.88;;;;;;;7.85;55.49;101969.25;4950112;28;20061;-60
2022/04/11 02:05:43;;;;;;;12.48;6.45;;;;;;;7.81;55.42;101969.91;4948753;28;20942;-59
2022/04/11 02:08:11;;;;;;;11.73;5.80;;;;;;;7.73;56.07;101964.44;4944626;28;20126;-58
2022/04/11 02:10:38;;;;;;;11.75;6.07;;;;;;;7.70;55.85;101977.25;4953514;28;20615;-58
2022/04/11 02:13:04;;;;;;;14.05;6.28;;;;;;;7.62;56.48;101972.59;4945112;28;20106;-59
2022/04/11 02:15:29;;;;;;;11.23;6.32;;;;;;;7.65;56.26;101972.69;4964035;28;20546;-59
2022/04/11 02:17:56;;;;;;;12.32;5.95;;;;;;;7.61;56.15;101976.00;4957449;28;20070;-59
2022/04/11 02:20:22;;;;;;;11.05;6.03;;;;;;;7.55;56.27;101968.84;4938551;28;21968;-57
2022/04/11 02:23:05;;;;;;;11.52;6.30;;;;;;;7.50;56.72;101970.31;4950684;28;20137;-58
2022/04/11 02:25:33;;;;;;;14.15;6.97;;;;;;;7.47;56.76;101969.31;4948097;28;20057;-58
2022/04/11 02:27:58;;;;;;;12.43;6.20;;;;;;;7.46;57.14;101967.53;4942402;28;20038;-59
2022/04/11 02:30:24;;;;;;;12.07;6.70;;;;;;;7.46;56.75;101968.44;4949633;28;20050;-59
2022/04/11 02:32:51;;;;;;;14.48;6.95;;;;;;;7.45;56.65;101963.16;4931280;28;20073;-58
2022/04/11 02:35:17;;;;;;;13.63;7.00;;;;;;;7.40;57.27;101967.28;4951110;28;20255;-58
2022/04/11 02:37:44;;;;;;;14.68;7.07;;;;;;;7.41;57.78;101963.88;4955851;28;20458;-58
2022/04/11 02:40:12;;;;;;;12.68;6.53;;;;;;;7.44;57.30;101964.88;4945304;28;20296;-58
2022/04/11 02:42:41;;;;;;;14.48;7.00;;;;;;;7.42;57.50;101971.72;4950629;28;20125;-59
2022/04/11 02:45:07;;;;;;;13.32;6.90;;;;;;;7.48;57.25;101963.31;4952485;28;20054;-57
2022/04/11 02:47:34;;;;;;;13.20;7.30;;;;;;;7.43;57.60;101972.63;4952047;28;20038;-59
2022/04/11 02:49:59;;;;;;;16.08;7.68;;;;;;;7.51;57.26;101964.31;4950464;28;20189;-61
2022/04/11 02:52:25;;;;;;;16.33;7.35;;;;;;;7.42;58.11;101961.34;4948514;28;20405;-58
2022/04/11 02:54:50;;;;;;;13.48;7.55;;;;;;;7.41;58.13;101966.47;4953403;28;20047;-59
2022/04/11 02:57:15;;;;;;;14.20;7.70;;;;;;;7.48;57.61;101956.41;4944737;28;20161;-59
2022/04/11 02:59:40;;;;;;;15.75;8.05;;;;;;;7.45;57.57;101953.69;4954607;28;20217;-59
2022/04/11 03:02:06;;;;;;;13.73;7.35;;;;;;;7.44;57.65;101951.91;4941273;28;20377;-59
2022/04/11 03:04:31;;;;;;;14.50;8.10;;;;;;;7.47;57.70;101951.16;4956385;28;20053;-58
2022/04/11 03:06:57;;;;;;;13.77;7.90;;;;;;;7.46;58.04;101957.16;4949872;28;20042;-58
2022/04/11 03:09:23;;;;;;;16.55;8.40;;;;;;;7.48;58.21;101947.75;4955057;28;20042;-59
2022/04/11 03:11:48;;;;;;;16.88;8.65;;;;;;;7.49;58.01;101953.00;4936781;28;20494;-57
2022/04/11 03:14:14;;;;;;;15.50;8.85;;;;;;;7.44;58.16;101946.72;4947378;28;20075;-58
2022/04/11 03:16:42;;;;;;;16.92;8.48;;;;;;;7.39;57.91;101934.38;4955370;28;20053;-58
2022/04/11 03:19:08;;;;;;;16.40;8.85;;;;;;;7.39;57.91;101940.44;4956060;28;20049;-60
2022/04/11 03:21:37;;;;;;;17.83;9.02;;;;;;;7.43;57.71;101939.78;4950156;28;20153;-58
2022/04/11 03:24:02;;;;;;;15.27;9.40;;;;;;;7.42;57.42;101942.28;4953429;28;20468;-59
2022/04/11 03:26:28;;;;;;;20.95;10.20;;;;;;;7.43;57.15;101939.78;4958170;28;20070;-60
2022/04/11 03:28:53;;;;;;;16.60;9.52;;;;;;;7.42;57.22;101943.19;4948596;28;20053;-59
2022/04/11 03:31:18;;;;;;;17.95;9.85;;;;;;;7.49;56.90;101937.44;4954705;28;20136;-59
2022/04/11 03:33:44;;;;;;;17.95;9.23;;;;;;;7.46;57.35;101929.50;4946576;28;20469;-58
2022/04/11 03:36:09;;;;;;;15.43;9.27;;;;;;;7.43;57.35;101932.00;4959708;28;20057;-59
2022/04/11 03:38:35;;;;;;;16.23;9.05;;;;;;;7.44;57.58;101931.16;4953007;28;20035;-59
2022/04/11 03:41:01;;;;;;;18.75;9.65;;;;;;;7.40;58.04;101928.34;4950994;28;20043;-58
2022/04/11 03:43:26;;;;;;;14.07;8.25;;;;;;;7.41;58.18;101931.03;4952609;28;20302;-60
2022/04/11 03:45:51;;;;;;;20.48;9.93;;;;;;;7.39;58.65;101932.66;4954096;28;20510;-58
2022/04/11 03:48:17;;;;;;;18.52;10.15;;;;;;;7.38;58.86;101930.03;4950749;28;20034;-58
2022/04/11 03:50:42;;;;;;;17.33;9.73;;;;;;;7.34;58.80;101927.28;4954361;28;21759;-60
2022/04/11 03:53:07;;;;;;;19.55;10.32;;;;;;;7.38;58.53;101932.63;4957395;28;20058;-59
2022/04/11 03:55:33;;;;;;;16.00;9.77;;;;;;;7.39;57.96;101935.25;4960426;28;20156;-58
2022/04/11 03:57:58;;;;;;;19.23;10.05;;;;;;;7.37;58.18;101923.94;4951816;28;20050;-59
2022/04/11 04:00:24;;;;;;;18.55;9.90;;;;;;;7.35;58.29;101930.78;4953687;28;20050;-59
2022/04/11 04:02:49;;;;;;;19.27;9.63;;;;;;;7.41;57.97;101928.44;4953570;28;20042;-58
2022/04/11 04:05:14;;;;;;;19.13;10.52;;;;;;;7.34;58.14;101924.69;4956663;28;20078;-60
2022/04/11 04:07:40;;;;;;;18.02;10.00;;;;;;;7.29;58.24;101926.19;4939589;28;20047;-60
2022/04/11 04:10:06;;;;;;;17.50;10.18;;;;;;;7.21;58.82;101930.16;4943615;28;20045;-60
2022/04/11 04:12:32;;;;;;;18.90;10.88;;;;;;;7.26;58.67;101930.34;4954134;28;20093;-60
2022/04/11 04:14:57;;;;;;;16.88;10.20;;;;;;;7.27;58.68;101932.13;4954360;28;20409;-60
2022/04/11 04:17:23;;;;;;;20.65;11.15;;;;;;;7.25;59.09;101926.00;4948091;28;20467;-59
2022/04/11 04:19:50;;;;;;;18.02;11.43;;;;;;;7.27;59.31;101925.25;4951746;28;20572;-57
2022/04/11 04:22:15;;;;;;;19.63;11.23;;;;;;;7.31;59.26;101921.97;4944186;28;20883;-59
2022/04/11 04:24:40;;;;;;;25.38;12.95;;;;;;;7.31;59.57;101914.19;4961941;28;20137;-60
2022/04/11 04:27:07;;;;;;;17.80;11.63;;;;;;;7.39;58.76;101919.69;4944848;28;20588;-58
2022/04/11 04:29:32;;;;;;;21.63;11.90;;;;;;;7.45;58.29;101908.69;4956297;28;20057;-59
2022/04/11 04:31:58;;;;;;;20.95;11.57;;;;;;;7.63;57.36;101914.66;4953315;28;20784;-57
2022/04/11 04:34:25;;;;;;;21.13;12.07;;;;;;;7.57;57.78;101910.09;4949965;28;20042;-60
2022/04/11 04:36:51;;;;;;;22.10;12.18;;;;;;;7.53;58.16;101907.31;4954121;28;20030;-59
2022/04/11 04:39:16;;;;;;;19.92;12.00;;;;;;;7.44;58.44;101910.38;4952594;28;20045;-58
2022/04/11 04:41:42;;;;;;;21.00;11.77;;;;;;;7.45;58.15;101909.56;4957874;28;20458;-60
2022/04/11 04:44:07;;;;;;;21.23;12.07;;;;;;;7.33;57.97;101912.53;4946528;28;20332;-58
2022/04/11 04:46:33;;;;;;;23.27;12.13;;;;;;;7.30;58.26;101907.22;4955512;28;20101;-58
2022/04/11 04:48:59;;;;;;;21.25;12.38;;;;;;;7.16;59.13;101913.53;4958344;28;20108;-59
2022/04/11 04:51:25;;;;;;;22.63;13.25;;;;;;;7.06;58.89;101902.69;4943782;28;20050;-60
2022/04/11 04:53:57;;;;;;;21.42;11.93;;;;;;;7.08;58.59;101908.81;4959796;28;20053;-58
2022/04/11 04:56:22;;;;;;;24.40;12.73;;;;;;;7.01;59.34;101907.69;4945085;28;20136;-59
2022/04/11 04:58:49;;;;;;;20.45;12.80;;;;;;;6.97;59.54;101915.22;4966028;28;20038;-59
2022/04/11 05:01:15;;;;;;;21.85;13.13;;;;;;;6.95;59.49;101907.41;4951612;28;20046;-60
2022/04/11 05:03:40;;;;;;;21.88;13.05;;;;;;;6.95;59.71;101912.59;4959203;28;20333;-59
2022/04/11 05:06:06;;;;;;;20.27;12.70;;;;;;;6.91;59.75;101905.47;4952312;28;20797;-60
2022/04/11 05:08:32;;;;;;;24.15;13.18;;;;;;;6.86;60.34;101914.75;4959902;28;20050;-59
2022/04/11 05:10:58;;;;;;;25.40;13.30;;;;;;;6.83;60.28;101905.13;4944136;28;20042;-59
2022/04/11 05:13:23;;;;;;;28.73;13.98;;;;;;;6.82;60.71;101899.91;4949147;28;20070;-59
2022/04/11 05:15:49;;;;;;;24.80;13.90;;;;;;;6.82;60.52;101908.56;4954935;28;20056;-60
2022/04/11 05:18:14;;;;;;;24.10;12.88;;;;;;;6.87;60.40;101909.66;4949052;28;20034;-59
2022/04/11 05:20:40;;;;;;;22.23;14.07;;;;;;;6.86;61.31;101905.28;4961274;28;20741;-59
2022/04/11 05:23:06;;;;;;;23.20;13.38;;;;;;;6.91;61.52;101908.97;4938729;28;20050;-59
2022/04/11 05:25:31;;;;;;;25.42;13.77;;;;;;;6.95;60.86;101904.81;4955059;28;20127;-60
2022/04/11 05:27:57;;;;;;;26.05;14.52;;;;;;;7.02;61.00;101905.94;4951524;28;20117;-57
2022/04/11 05:30:22;;;;;;;26.15;14.80;;;;;;;7.13;59.82;101908.22;4958608;28;20058;-59
2022/04/11 05:32:48;;;;;;;24.52;14.82;;;;;;;7.22;58.73;101908.59;4949189;28;20591;-58
2022/04/11 05:35:13;;;;;;;24.83;14.50;;;;;;;7.37;58.38;101910.09;4958531;28;20042;-59
2022/04/11 05:37:38;;;;;;;23.00;14.32;;;;;;;7.46;57.87;101908.75;4955615;28;20239;-60
2022/04/11 05:40:05;;;;;;;27.30;14.85;;;;;;;7.57;57.26;101915.28;4949569;28;20081;-60
2022/04/11 05:42:31;;;;;;;24.48;14.45;;;;;;;7.67;56.74;101912.25;4950239;28;20535;-60
2022/04/11 05:44:56;;;;;;;26.45;14.57;;;;;;;7.77;56.43;101910.03;4957157;28;20692;-58
2022/04/11 05:47:22;;;;;;;29.70;14.68;;;;;;;7.90;55.88;101900.22;4955732;28;20065;-58
2022/04/11 05:49:47;;;;;;;27.25;14.77;;;;;;;8.10;55.88;101911.41;4952317;28;20120;-59
2022/04/11 05:52:21;;;;;;;23.08;14.68;;;;;;;8.29;55.89;101908.72;4937754;28;20485;-59
2022/04/11 05:54:47;;;;;;;24.85;14.65;;;;;;;8.49;54.42;101905.19;4952937;28;20326;-59
2022/04/11 05:57:12;;;;;;;26.63;15.48;;;;;;;8.69;53.86;101908.53;4945071;28;20053;-58
2022/04/11 05:59:38;;;;;;;25.38;14.32;;;;;;;8.90;53.75;101903.25;4953741;28;20133;-60
2022/04/11 06:02:03;;;;;;;25.08;15.02;;;;;;;8.99;53.25;101913.09;4942541;28;20541;-56
2022/04/11 06:04:29;;;;;;;24.60;14.80;;;;;;;9.09;52.81;101913.47;4949133;28;20383;-59
2022/04/11 06:06:54;;;;;;;24.00;14.40;;;;;;;9.19;52.12;101902.56;4959042;28;20495;-60
2022/04/11 06:09:20;;;;;;;24.20;14.73;;;;;;;9.18;51.61;101902.53;4962067;28;20402;-59
2022/04/11 06:11:45;;;;;;;24.70;14.52;;;;;;;9.60;50.47;101905.72;4945721;28;20037;-58
2022/04/11 06:14:11;;;;;;;27.98;14.95;;;;;;;10.05;50.21;101907.22;4951377;28;20080;-60
2022/04/11 06:16:36;;;;;;;24.05;14.55;;;;;;;10.63;47.65;101908.16;4953447;28;20042;-59
2022/04/11 06:19:02;;;;;;;23.45;14.63;;;;;;;11.19;47.30;101910.66;4955810;28;20474;-58
2022/04/11 06:21:27;;;;;;;21.45;13.27;;;;;;;12.27;45.02;101913.41;4950268;28;20043;-57
2022/04/11 06:23:53;;;;;;;23.77;14.45;;;;;;;12.74;44.76;101903.13;4958976;28;20133;-59
2022/04/11 06:26:18;;;;;;;24.17;14.27;;;;;;;13.23;42.46;101895.41;4940664;28;20828;-59
2022/04/11 06:28:43;;;;;;;27.65;13.77;;;;;;;13.04;42.04;101895.00;4950431;28;20050;-59
2022/04/11 06:31:11;;;;;;;20.52;13.90;;;;;;;12.95;41.72;101900.91;4952312;28;20112;-58
2022/04/11 06:33:37;;;;;;;21.92;13.57;;;;;;;12.53;42.98;101904.41;4945531;28;20038;-59
2022/04/11 06:36:03;;;;;;;22.83;14.43;;;;;;;12.19;44.11;101899.28;4940077;28;20313;-61
2022/04/11 06:38:28;;;;;;;22.45;13.70;;;;;;;12.02;44.00;101903.22;4948434;28;20243;-59
2022/04/11 06:40:55;;;;;;;22.00;14.45;;;;;;;12.04;43.52;101899.81;4956304;28;20038;-59
2022/04/11 06:43:21;;;;;;;26.10;14.48;;;;;;;11.73;44.73;101903.41;4948715;28;20051;-57
2022/04/11 06:45:46;;;;;;;22.48;13.98;;;;;;;11.45;45.25;101895.69;4951615;28;20152;-57
2022/04/11 06:48:12;;;;;;;27.00;15.85;;;;;;;11.43;46.64;101896.47;4942594;28;20047;-58
2022/04/11 06:50:37;;;;;;;25.55;14.40;;;;;;;11.42;46.20;101892.97;4948784;28;20559;-60
2022/04/11 06:53:02;;;;;;;21.27;14.40;;;;;;;11.92;45.02;101896.91;4950566;28;20157;-58
2022/04/11 06:55:28;;;;;;;22.00;14.52;;;;;;;12.30;44.41;101897.78;4949962;28;20820;-58
2022/04/11 06:57:54;;;;;;;22.20;14.48;;;;;;;12.77;43.61;101900.53;4952952;28;20157;-59
2022/04/11 07:00:19;;;;;;;23.85;14.23;;;;;;;13.48;43.04;101896.72;4938467;28;20086;-59
2022/04/11 07:02:44;;;;;;;21.85;14.30;;;;;;;14.26;40.23;101891.00;4954302;28;20050;-59
2022/04/11 07:05:10;;;;;;;22.58;14.25;;;;;;;14.63;39.41;101884.56;4950190;28;20074;-58
2022/04/11 07:07:39;;;;;;;21.27;12.70;;;;;;;15.49;38.37;101886.41;4950412;28;20085;-59
2022/04/11 07:10:05;;;;;;;25.65;14.07;;;;;;;15.24;38.47;101882.66;4939881;28;20061;-59
2022/04/11 07:12:30;;;;;;;25.20;14.38;;;;;;;15.41;37.89;101876.69;4951985;28;20153;-58
2022/04/11 07:15:03;;;;;;;22.58;13.98;;;;;;;15.75;37.03;101877.00;4956860;28;20066;-57
2022/04/11 07:17:28;;;;;;;25.80;13.60;;;;;;;16.08;37.17;101884.28;4948227;28;20445;-57
2022/04/11 07:19:54;;;;;;;21.13;13.40;;;;;;;16.07;37.48;101880.75;4950561;28;20042;-57
2022/04/11 07:22:23;;;;;;;21.17;13.57;;;;;;;16.58;36.31;101876.69;4946363;28;20396;-56
2022/04/11 07:24:51;;;;;;;23.48;12.73;;;;;;;16.97;36.13;101875.97;4959541;28;20049;-57
2022/04/11 07:27:16;;;;;;;19.75;13.77;;;;;;;16.33;36.26;101880.94;4957743;28;20381;-56
2022/04/11 07:29:42;;;;;;;24.10;13.30;;;;;;;16.23;36.67;101874.72;4944363;28;20400;-58
2022/04/11 07:32:07;;;;;;;20.80;13.23;;;;;;;15.59;37.66;101872.50;4947574;28;20659;-58
2022/04/11 07:34:33;;;;;;;21.65;13.40;;;;;;;16.20;36.87;101871.19;4943726;28;20089;-57
2022/04/11 07:36:58;;;;;;;20.33;13.65;;;;;;;15.99;38.38;101876.31;4955160;28;20425;-57
2022/04/11 07:39:24;;;;;;;23.90;13.93;;;;;;;16.27;36.74;101866.84;4960613;28;20724;-59
2022/04/11 07:41:55;;;;;;;21.38;13.45;;;;;;;16.09;37.11;101875.53;4954990;28;20768;-59
2022/04/11 07:44:22;;;;;;;21.52;13.68;;;;;;;15.80;38.76;101867.41;4945352;28;20362;-58
2022/04/11 07:46:47;;;;;;;22.40;13.60;;;;;;;15.86;39.35;101859.56;4951330;28;20075;-59
2022/04/11 07:49:13;;;;;;;25.55;14.18;;;;;;;15.99;38.50;101860.53;4953052;28;20133;-59
2022/04/11 07:51:39;;;;;;;23.42;13.77;;;;;;;16.48;36.71;101852.03;4949004;28;20395;-58
2022/04/11 07:54:04;;;;;;;22.33;13.55;;;;;;;16.39;37.65;101854.66;4942603;28;20510;-58
2022/04/11 07:56:30;;;;;;;25.52;14.20;;;;;;;16.07;36.99;101846.56;4954521;28;20245;-57
2022/04/11 07:58:56;;;;;;;23.33;13.07;;;;;;;15.97;38.36;101849.13;4956992;28;20282;-58
2022/04/11 08:01:22;;;;;;;21.55;13.20;;;;;;;16.40;37.00;101851.16;4948373;28;20038;-57
2022/04/11 08:03:47;;;;;;;24.20;13.65;;;;;;;15.71;38.17;101841.06;4949988;28;20443;-59
2022/04/11 08:06:14;;;;;;;20.85;13.75;;;;;;;15.36;39.10;101835.47;4963001;28;20038;-59
2022/04/11 08:08:44;;;;;;;23.33;13.45;;;;;;;14.80;40.58;101846.28;4955413;28;20046;-59
2022/04/11 08:11:11;;;;;;;20.02;13.48;;;;;;;14.80;40.36;101842.75;4946529;28;20049;-57
2022/04/11 08:13:38;;;;;;;19.80;12.85;;;;;;;15.09;40.70;101843.06;4946598;28;20080;-58
2022/04/11 08:16:03;;;;;;;20.83;13.48;;;;;;;15.27;40.98;101832.75;4941591;28;20049;-59
2022/04/11 08:18:29;;;;;;;20.23;12.70;;;;;;;15.42;40.08;101833.78;4952249;28;20050;-57
2022/04/11 08:20:54;;;;;;;25.02;12.52;;;;;;;15.22;39.62;101829.19;4945697;28;20129;-58
2022/04/11 08:23:19;;;;;;;20.75;12.02;;;;;;;15.19;39.59;101835.28;4954338;28;20521;-59
2022/04/11 08:25:49;;;;;;;20.38;12.88;;;;;;;15.43;39.91;101829.38;4951699;28;20047;-59
2022/04/11 08:28:15;;;;;;;19.30;12.30;;;;;;;15.47;39.19;101833.81;4948002;28;20042;-59
2022/04/11 08:30:41;;;;;;;21.35;12.43;;;;;;;15.10;39.82;101831.72;4955631;28;20120;-59
2022/04/11 08:33:07;;;;;;;20.75;13.10;;;;;;;15.53;41.59;101835.66;4956854;28;20528;-59
2022/04/11 08:35:32;;;;;;;21.08;12.18;;;;;;;15.50;39.56;101830.31;4939252;28;20054;-60
2022/04/11 08:37:58;;;;;;;19.10;11.85;;;;;;;15.47;39.00;101833.81;4952090;28;20528;-58
2022/04/11 08:40:23;;;;;;;20.42;12.63;;;;;;;15.62;39.98;101835.69;4948415;28;20597;-59
2022/04/11 08:42:50;;;;;;;20.00;11.73;;;;;;;15.67;38.91;101834.03;4959838;28;20043;-60
2022/04/11 08:45:17;;;;;;;17.30;11.75;;;;;;;15.94;40.95;101838.56;4953422;28;20398;-60
2022/04/11 08:47:43;;;;;;;20.60;12.25;;;;;;;16.04;39.35;101835.16;4953953;28;20046;-58
2022/04/11 08:50:16;;;;;;;20.27;11.63;;;;;;;16.09;39.14;101833.44;4948685;28;20074;-59
2022/04/11 08:52:41;;;;;;;18.88;11.27;;;;;;;15.88;38.92;101836.78;4958384;28;20198;-60
2022/04/11 08:55:08;;;;;;;19.23;10.70;;;;;;;16.32;38.40;101826.53;4955600;28;20182;-59
2022/04/11 08:57:37;;;;;;;16.05;10.88;;;;;;;16.04;37.93;101825.47;4956455;28;20401;-58
2022/04/11 09:00:14;;;;;;;16.65;10.75;;;;;;;16.34;37.00;101823.91;4944088;28;20855;-59
2022/04/11 09:02:41;;;;;;;17.10;10.88;;;;;;;16.28;38.16;101808.09;4955131;28;20132;-58
2022/04/11 09:05:08;;;;;;;26.60;11.00;;;;;;;16.45;37.13;101806.41;4954257;28;20121;-59
2022/04/11 09:07:48;;;;;;;19.33;9.85;;;;;;;16.24;38.44;101810.69;4950691;28;20773;-60
2022/04/11 09:10:23;;;;;;;16.30;10.27;;;;;;;16.31;39.15;101811.63;4946477;28;20476;-59
2022/04/11 09:12:51;;;;;;;15.95;10.45;;;;;;;16.13;37.95;101819.41;4954358;28;20043;-59
2022/04/11 09:15:18;;;;;;;15.05;9.73;;;;;;;15.93;38.57;101808.75;4942853;28;20086;-60
2022/04/11 09:17:47;;;;;;;18.40;9.75;;;;;;;15.88;37.70;101812.25;4970943;28;20066;-59
2022/04/11 09:20:18;;;;;;;15.90;9.90;;;;;;;15.98;37.73;101803.56;4949923;28;20041;-59
2022/04/11 09:22:44;;;;;;;15.23;9.70;;;;;;;16.09;37.77;101810.63;4951466;28;20841;-58
2022/04/11 09:25:13;;;;;;;15.25;8.45;;;;;;;16.30;36.80;101795.81;4948181;28;20448;-59
2022/04/11 09:27:39;;;;;;;13.15;9.18;;;;;;;16.30;38.07;101799.31;4951440;28;20039;-58
2022/04/11 09:30:34;;;;;;;14.52;8.60;;;;;;;16.30;36.29;101788.81;4946329;28;20502;-59
2022/04/11 09:33:04;;;;;;;15.73;8.38;;;;;;;16.09;36.46;101792.22;4939241;28;20089;-60
2022/04/11 09:35:33;;;;;;;15.25;8.57;;;;;;;16.48;37.02;101788.88;4942192;28;20058;-59
2022/04/11 09:38:16;;;;;;;13.55;8.70;;;;;;;16.47;36.34;101799.38;4953395;28;20042;-58
2022/04/11 09:40:53;;;;;;;12.25;7.05;;;;;;;16.67;36.21;101794.22;4953176;28;20054;-59
2022/04/11 09:43:26;;;;;;;12.80;7.20;;;;;;;16.63;34.91;101790.72;4947203;28;20413;-58
2022/04/11 09:45:52;;;;;;;11.85;7.50;;;;;;;16.57;35.62;101795.94;4944848;28;20057;-59
2022/04/11 09:48:25;;;;;;;10.82;7.40;;;;;;;16.84;34.66;101796.03;4946693;28;20265;-59
2022/04/11 09:50:52;;;;;;;10.65;6.82;;;;;;;16.73;34.70;101792.50;4948585;28;20508;-59
2022/04/11 09:53:23;;;;;;;9.75;6.40;;;;;;;16.49;35.66;101782.75;4954665;28;20042;-59
2022/04/11 09:55:51;;;;;;;13.60;6.72;;;;;;;16.57;34.94;101773.13;4948635;28;20147;-58
2022/04/11 09:58:18;;;;;;;10.48;5.55;;;;;;;16.28;34.46;101779.16;4946928;28;20348;-59
2022/04/11 10:00:43;;;;;;;11.73;5.93;;;;;;;16.82;35.69;101783.75;4951431;28;20050;-60
2022/04/11 10:03:08;;;;;;;11.27;6.15;;;;;;;17.16;35.64;101774.13;4954468;28;20070;-59
2022/04/11 10:05:41;;;;;;;13.02;6.18;;;;;;;16.86;33.72;101770.59;4949541;28;20056;-59
2022/04/11 10:08:09;;;;;;;10.60;6.18;;;;;;;16.92;33.64;101769.72;4945034;28;20093;-60
2022/04/11 10:10:38;;;;;;;9.20;6.00;;;;;;;17.14;34.02;101775.91;4941985;28;20477;-56
2022/04/11 10:13:06;;;;;;;9.65;6.60;;;;;;;17.04;32.82;101772.38;4948192;28;20405;-57
2022/04/11 10:15:32;;;;;;;11.90;6.43;;;;;;;16.46;33.45;101772.22;4952207;28;20061;-57
2022/04/11 10:18:00;;;;;;;11.00;6.40;;;;;;;16.70;34.50;101773.19;4947835;28;20779;-59
2022/04/11 10:20:33;;;;;;;9.18;6.25;;;;;;;16.76;33.23;101775.84;4943476;28;20518;-57
2022/04/11 10:23:37;;;;;;;9.23;6.53;;;;;;;16.57;33.94;101766.97;4951337;28;20418;-60
2022/04/11 10:26:14;;;;;;;11.65;7.38;;;;;;;16.47;34.04;101752.00;4935636;28;20058;-60
2022/04/11 10:28:53;;;;;;;12.00;7.20;;;;;;;16.65;33.88;101756.50;4959210;28;20367;-60
2022/04/11 10:31:18;;;;;;;14.98;7.90;;;;;;;16.92;34.69;101752.16;4956708;28;20422;-59
2022/04/11 10:33:50;;;;;;;16.75;10.00;;;;;;;16.05;32.54;101761.50;4934354;28;20046;-59
2022/04/11 10:36:38;;;;;;;14.73;9.05;;;;;;;16.35;32.44;101750.22;4940706;28;20605;-59
2022/04/11 10:39:12;;;;;;;15.50;9.30;;;;;;;16.13;33.02;101751.91;4951821;28;20525;-58
2022/04/11 10:41:56;;;;;;;;;;;;;;;16.24;33.24;101746.66;4955191;28;20050;-60
2022/04/11 10:44:31;;;;;;;14.95;8.60;;;;;;;16.01;32.97;101748.31;4956312;28;21081;-59
2022/04/11 10:47:12;;;;;;;12.63;8.30;;;;;;;16.49;33.42;101740.63;4959370;23;20113;-60
2022/04/11 10:49:57;;;;;;;11.68;8.02;;;;;;;16.32;31.61;101736.19;4936369;28;20050;-60
2022/04/11 10:52:37;;;;;;;11.13;8.40;;;;;;;16.25;33.26;101732.66;4911919;28;20418;-58
2022/04/11 10:55:30;;;;;;;12.50;7.95;;;;;;;16.16;32.65;101716.84;4923020;28;20050;-58
2022/04/11 10:57:59;;;;;;;12.20;8.20;;;;;;;16.56;32.39;101709.94;4931300;28;20082;-59
2022/04/11 11:00:37;;;;;;;14.35;8.60;;;;;;;16.80;32.19;101706.50;4920410;28;20548;-60
2022/04/11 11:03:09;;;;;;;14.23;8.95;;;;;;;17.04;32.25;101702.13;4938868;28;20051;-59
2022/04/11 11:05:39;;;;;;;14.43;9.10;;;;;;;17.03;32.86;101712.66;4940833;28;20055;-59
2022/04/11 11:08:07;;;;;;;13.20;8.57;;;;;;;17.30;32.18;101704.75;4930187;28;20175;-59
2022/04/11 11:10:53;;;;;;;13.75;8.25;;;;;;;16.70;31.89;101697.72;4937374;28;20046;-59
2022/04/11 11:13:30;;;;;;;14.95;8.93;;;;;;;16.28;32.42;101692.31;4933982;28;20054;-59
2022/04/11 11:16:07;;;;;;;14.35;9.18;;;;;;;16.79;33.15;101684.53;4937868;28;20045;-57
2022/04/11 11:18:51;;;;;;;11.88;8.93;;;;;;;16.22;32.66;101667.72;4939904;28;20130;-59
2022/04/11 11:21:21;;;;;;;15.90;8.80;;;;;;;16.76;32.67;101670.50;4936591;28;20058;-59